ADDS TAF Data INFO
IDs: Format: Raw Decoded Include METARs

Data at: 1342 UTC 25 Feb 2018

KSRQ 251137Z 2512/2612 12006KT P6SM SKC
  FM251400 14009KT P6SM SCT020
  FM251700 20011KT P6SM SCT040
  FM260100 VRB04KT P6SM BKN060
  FM260600 15004KT P6SM SCT060